Logo AVAMET
Benvolgut visitant, si us plau, ingressa Recuperar contrasenya
AVAMET paisatges

les Useres

Dades diàries. Acumulats / Últims 30 dies disponibles

Data Temperatura (°C) Humitat rel. (%) Pressió rel. (hPa) Vent (km/h) Precipitació
Mínima Mitjana Màxima Amplitud
tèrmica
Mínima Mitjana Màxima Mínima Mitjana Màxima Predom. Mitjana Ràfega
màxima
Total
(mm)
Índex-n
Mínima Mitjana Màxima Mínima Mitjana Màxima n
0 a 1
P0 max
mm 5'
Dades mensuals acumulades fins l'últim dia disponible
09/2020 14,2 17,8 19,9 22,3 23,2 27,4 30,6 16,4 32 63 93 1.010 1.017 1.023   6,4 51,5 46,6
Dades anuals acumulades fins l'últim dia disponible
2020 1,8 13,8 24,3 17,8 6,2 22,6 35,0 33,2 21 66 96 992 1.016 1.033   6,2 104,6 813,6
Últims 30 dies disponibles
19-09-2020 17,6     22,7     27,7 10,1 34 59 89 1.010 1.012 1.015 W 9,8 51,5 0,0
18-09-2020 18,3     20,6     23,6 5,3 64 79 89 1.013 1.014 1.015 SE 3,9 32,2 1,8
17-09-2020 19,2     23,0     28,2 9,0 41 64 77 1.013 1.014 1.016 SE 4,8 46,7 0,2
16-09-2020 19,7     24,1     29,7 10,0 45 62 75 1.015 1.017 1.019 SE 5,0 32,2 0,0
15-09-2020 19,1     23,6     28,8 9,7 49 65 77 1.017 1.019 1.021 SE 6,4 41,8 0,0
14-09-2020 19,6     23,8     29,4 9,8 41 57 77 1.019 1.021 1.022 SE 4,8 32,2 0,0
13-09-2020 19,6     25,0     30,6 11,0 40 51 62 1.019 1.021 1.022 SE 6,1 41,8 0,0
12-09-2020 17,6     23,6     29,6 12,0 34 57 74 1.014 1.016 1.020 SE 5,6 40,2 0,0
11-09-2020 18,6     23,7     29,6 11,0 32 54 75 1.012 1.013 1.015 SE 5,3 29,0 0,0
10-09-2020 16,8     21,2     26,3 9,5 54 71 91 1.014 1.017 1.019 SE 5,5 38,6 0,2
09-09-2020 15,6     19,6     24,6 9,0 53 71 93 1.018 1.019 1.021 NNW 6,0 51,5 43,4 0,12 13,20
08-09-2020 14,2     19,9     26,3 12,1 36 54 78 1.020 1.021 1.022 NNW 6,6 37,0 0,0
07-09-2020 17,7     19,9     23,2 5,5 41 60 79 1.014 1.016 1.020 NNW 8,9 40,2 0,0
06-09-2020 19,9     23,4     28,1 8,2 48 64 81 1.013 1.015 1.017 SE 7,6 43,5 0,0
05-09-2020 17,1     22,4     28,2 11,1 49 67 82 1.016 1.018 1.021 SE 6,0 40,2 0,0
04-09-2020 17,8     22,4     27,5 9,7 51 66 80 1.020 1.022 1.023 SE 7,6 41,8 0,0
03-09-2020 16,7     22,0     26,9 10,2 52 69 84 1.017 1.020 1.023 SE 8,2 45,1 0,0
02-09-2020 17,5     21,6     26,4 8,9 37 58 81 1.012 1.014 1.018 SE 7,2 38,6 0,0
01-09-2020 16,4     20,4     25,7 9,3 49 65 80 1.010 1.012 1.016 SE 5,5 35,4 1,0 0,37 0,40
31-08-2020 14,9     20,2     25,3 10,4 30 48 69 1.014 1.016 1.018 S 9,1 43,5 0,0
30-08-2020 15,6     19,5     24,4 8,8 32 47 62 1.007 1.011 1.016 NNW 9,8 41,8 0,0
29-08-2020 16,9     19,9     23,1 6,2 45 61 81 1.001 1.003 1.007 NNW 10,9 43,5 1,8
28-08-2020 22,3     25,1     31,7 9,4 53 75 93 1.001 1.005 1.011 SE 5,6 40,2 0,0
27-08-2020 21,8     26,2     32,4 10,6 47 71 87 1.011 1.014 1.017 ESE 4,7 32,2 0,0
26-08-2020 21,3     26,3     33,2 11,9 48 71 87 1.015 1.016 1.017 SE 5,0 30,6 0,0
25-08-2020 21,2     25,6     30,7 9,5 55 74 88 1.013 1.014 1.015 SE 7,6 37,0 0,0
24-08-2020 21,2     24,3     28,4 7,2 47 67 87 1.013 1.015 1.016 SE 6,8 43,5 0,0
23-08-2020 21,9     24,1     26,9 5,0 55 66 79 1.016 1.018 1.019 SE 4,0 22,5 0,0
22-08-2020 22,5     26,2     31,4 8,9 52 68 85 1.014 1.016 1.018 SE 5,6 37,0 0,0
21-08-2020 19,8     26,4     32,2 12,4 54 70 87 1.009 1.011 1.014 SE 5,1 38,6 0,0
Últims 13 mesos disponibles
08/2020 14,9 20,8 23,7 25,1 23,1 30,2 34,0 19,1 47 63 75 1.003 1.012 1.018 SE 6,8 53,1 9,0
07/2020 17,7 20,2 24,3 24,8 25,9 29,9 35,0 17,3 38 64 80 1.010 1.014 1.019 SE 6,3 48,3 8,8
06/2020 12,9 16,8 20,1 21,0 19,7 25,7 29,8 16,9 43 65 83 1.002 1.013 1.019 SE 6,5 59,5 47,8
05/2020 11,3 15,2 18,8 19,6 16,1 24,4 30,2 18,9 48 63 82 1.003 1.015 1.026 SE 5,9 46,7 59,8
04/2020 6,3 10,4 15,3 13,7 12,4 18,2 25,7 19,4 47 75 88 1.003 1.014 1.025 SE 5,4 57,9 286,0
03/2020 3,8 8,8 14,5 12,2 8,6 16,1 24,8 21,0 45 67 92 1.002 1.015 1.026 NNW 8,2 104,6 203,4
02/2020 4,3 9,2 15,7 13,6 12,6 18,9 24,4 20,1 35 63 89 1.010 1.023 1.031 SE 5,0 62,8 0,8
01/2020 1,8 6,4 12,1 9,8 6,2 14,1 20,0 18,2 52 71 93 1.017 1.024 1.031 SE 5,5 74,0 151,4
12/2019 4,2 9,4 14,9 12,5 10,2 16,1 22,9 18,7 40 65 86 998 1.017 1.031 SE 7,1 96,6 96,2
11/2019 5,4 10,0 17,0 13,4 12,3 17,3 25,4 20,0 43 53 73 994 1.008 1.016 SE 9,5 78,9 3,2
10/2019 9,7 14,8 18,2 18,7 14,3 23,3 30,4 20,7 43 65 82 1.005 1.015 1.020 SE 6,0 56,3 24,8
09/2019 12,8 17,8 20,5 21,7 19,6 26,3 30,6 17,8 51 67 81 1.008 1.016 1.025 SE 7,5 66,0 33,8
08/2019 17,3 20,3 25,9 24,7 23,8 29,9 36,4 19,1 48 65 80 1.009 1.014 1.019 SE 6,4 66,0 47,0
Tots els anys disponibles
2019 1,8 13,0 25,9 17,0 9,1 21,7 38,4 36,6 22 59 88 990 1.015 1.032 SE 7,5 122,3 365,0
Temperatura (°C)
Humitat relativa (%)
Velocitat del vent i ràfega màxima (km/h)
Direcció del vent (°)
Pressió (hPa)
Precipitació (mm)
Nota sobre les dades: s'avisa a l'usuari de la provisionalitat i no oficialitat d'aquestes dades
Logo AVAMET blanc
Web allotjada a Sollutia
Llicència de Creative CommonsLa web d'AVAMET i els seus continguts estan subjectes a una llicència de
Reconeixement - No Comercial - Compartir igual
Últimes estacions: Castelló de la Plana - Grup Sant Agustí (Soci), Llíria - Urb. San Gerardo (Soci), Xàtiva - Ausiàs March (Soci), Gandia - Parpalló/Borrell (AVAMET), Olocau del Rei - La Magdalena (Electra/Soci), Ademuz - IES Ademuz (Soci), La Jana (Ajuntament Soci), Villahermosa del Río - la Cañada (Soci), Benassal (Ajuntament Soci), la Torre de les Maçanes - la Canaleta (Soci) - - -